SAZS Airport Information

Runway Information
Runway 11 Length 7703 ft width 157 ft
Elevation 2749 ft Threshold 0 ft Heading 115
Runway 29 Length 7703 ft Width 157 ft
Elevation 2772 ft Threshold 0 ft Heading 295
Airport Frequencies
Type ATIS Name ATIS Frequency 127.9 MHZ
Type RDO Name BARILOCHE Frequency 122.3 MHZ
Type TWR Name BARILOCHE Frequency 119.1 MHZ
Airport Navaids
Type VOR-DME Name San Carlos De Bariloche Frequency 117400 KHZ
Airport Weather Information & NOTAM
ADDS - METARS form results

(0813 UTC 22 May 2018)
 
METAR text: SAZS 220800Z 15004KT CAVOK M04/M05 Q1023
Conditions at: SAZS (SAN CARLOS BARIL, AR) observed 0800 UTC 22 May 2018
Temperature: -4.0°C (25°F)
Dewpoint: -5.0°C (23°F) [RH = 93%]
Pressure (altimeter): 30.21 inches Hg (1023.0 mb)
Winds: from the SSE (150 degrees) at 5 MPH (4 knots; 2.1 m/s)
Visibility: 6 or more miles (10+ km)
Ceiling: ceiling and visibility are OK
Clouds: unknown
Weather: no significant weather observed at this time